Time,TemperatureF,DewpointF,PressureIn,WindDirection,WindDirectionDegrees,WindSpeedMPH,WindSpeedGustMPH,Humidity,HourlyPrecipIn,Conditions,Clouds,dailyrainin,SoftwareType,DateUTC
2013-06-01 00:02:00,45.6,42.3,30.07,North,0,0.0,-999.0,87,0.00,,,-99.99,,2013-06-01 08:02:00,
2013-06-01 00:07:00,45.6,42.4,30.07,North,0,0.0,-999.0,88,0.00,,,-99.99,,2013-06-01 08:07:00,
2013-06-01 00:12:00,45.6,42.3,30.07,North,0,0.0,-999.0,88,0.00,,,-99.99,,2013-06-01 08:12:00,
2013-06-01 00:17:00,45.6,42.2,30.07,North,0,0.0,-999.0,87,0.00,,,-99.99,,2013-06-01 08:17:00,
2013-06-01 00:22:00,45.5,42.1,30.07,North,0,0.0,-999.0,88,0.00,,,-99.99,,2013-06-01 08:22:00,
2013-06-01 00:27:00,45.3,42.2,30.07,North,0,0.0,-999.0,88,0.00,,,-99.99,,2013-06-01 08:27:00,
2013-06-01 00:32:00,45.8,42.7,30.07,North,0,0.0,-999.0,89,0.00,,,-99.99,,2013-06-01 08:32:00,
2013-06-01 00:37:00,45.4,42.2,30.07,North,0,0.0,-999.0,88,0.00,,,-99.99,,2013-06-01 08:37:00,
2013-06-01 00:42:00,45.2,42.1,30.07,North,0,0.0,-999.0,88,0.00,,,-99.99,,2013-06-01 08:42:00,
2013-06-01 00:47:00,45.1,42.1,30.07,North,0,0.0,-999.0,89,0.00,,,-99.99,,2013-06-01 08:47:00,
2013-06-01 00:52:00,45.0,42.1,30.07,North,0,0.0,-999.0,89,0.00,,,-99.99,,2013-06-01 08:52:00,
2013-06-01 00:57:00,44.7,42.0,30.07,North,0,0.0,-999.0,90,0.00,,,-99.99,,2013-06-01 08:57:00,
2013-06-01 01:02:00,44.8,42.3,30.10,North,0,0.0,-999.0,90,0.00,,,-99.99,,2013-06-01 09:02:00,
2013-06-01 01:07:00,44.6,42.1,30.10,North,0,0.0,-999.0,90,0.00,,,-99.99,,2013-06-01 09:07:00,
2013-06-01 01:12:00,44.6,42.2,30.10,North,0,0.0,-999.0,91,0.00,,,-99.99,,2013-06-01 09:12:00,
2013-06-01 01:17:00,44.3,42.1,30.10,North,0,0.0,-999.0,91,0.00,,,-99.99,,2013-06-01 09:17:00,
2013-06-01 01:22:00,44.3,42.3,30.10,North,0,0.0,-999.0,92,0.00,,,-99.99,,2013-06-01 09:22:00,
2013-06-01 01:27:00,44.2,42.2,30.10,North,0,0.0,-999.0,92,0.00,,,-99.99,,2013-06-01 09:27:00,
2013-06-01 01:32:00,44.2,42.2,30.10,North,0,0.0,-999.0,92,0.00,,,-99.99,,2013-06-01 09:32:00,
2013-06-01 01:37:00,44.2,42.2,30.10,North,0,0.0,-999.0,92,0.00,,,-99.99,,2013-06-01 09:37:00,
2013-06-01 01:42:00,44.3,42.4,30.10,North,0,0.0,-999.0,92,0.00,,,-99.99,,2013-06-01 09:42:00,
2013-06-01 01:47:00,44.2,42.2,30.10,North,0,0.0,-999.0,92,0.00,,,-99.99,,2013-06-01 09:47:00,
2013-06-01 01:52:00,44.0,42.2,30.10,North,0,0.0,-999.0,93,0.00,,,-99.99,,2013-06-01 09:52:00,
2013-06-01 01:57:00,44.0,42.2,30.10,North,0,0.0,-999.0,93,0.00,,,-99.99,,2013-06-01 09:57:00,
2013-06-01 02:02:00,44.0,42.2,30.09,North,0,0.0,-999.0,93,0.00,,,-99.99,,2013-06-01 10:02:00,
2013-06-01 02:07:00,44.0,42.3,30.09,North,0,0.0,-999.0,93,0.00,,,-99.99,,2013-06-01 10:07:00,
2013-06-01 02:12:00,44.1,42.4,30.09,North,0,0.0,-999.0,93,0.00,,,-99.99,,2013-06-01 10:12:00,
2013-06-01 02:17:00,43.8,42.2,30.09,North,0,0.0,-999.0,93,0.00,,,-99.99,,2013-06-01 10:17:00,
2013-06-01 02:22:00,43.9,42.3,30.09,North,0,0.0,-999.0,93,0.00,,,-99.99,,2013-06-01 10:22:00,
2013-06-01 02:27:00,44.1,42.5,30.09,North,0,0.0,-999.0,93,0.00,,,-99.99,,2013-06-01 10:27:00,
2013-06-01 02:32:00,43.9,42.3,30.09,North,0,0.0,-999.0,93,0.00,,,-99.99,,2013-06-01 10:32:00,
2013-06-01 02:37:00,44.0,42.4,30.09,North,0,0.0,-999.0,93,0.00,,,-99.99,,2013-06-01 10:37:00,
2013-06-01 02:42:00,44.0,42.3,30.09,North,0,0.0,-999.0,93,0.00,,,-99.99,,2013-06-01 10:42:00,
2013-06-01 02:47:00,44.0,42.4,30.09,North,0,0.0,-999.0,93,0.00,,,-99.99,,2013-06-01 10:47:00,
2013-06-01 02:52:00,43.9,42.2,30.09,North,0,0.0,-999.0,93,0.00,,,-99.99,,2013-06-01 10:52:00,
2013-06-01 02:57:00,44.0,42.4,30.09,North,0,0.0,-999.0,93,0.00,,,-99.99,,2013-06-01 10:57:00,
2013-06-01 03:02:00,44.0,42.5,30.10,North,0,0.0,-999.0,94,0.00,,,-99.99,,2013-06-01 11:02:00,
2013-06-01 03:07:00,44.0,42.4,30.10,North,0,0.0,-999.0,94,0.00,,,-99.99,,2013-06-01 11:07:00,
2013-06-01 03:12:00,43.7,42.2,30.10,North,0,0.0,-999.0,94,0.00,,,-99.99,,2013-06-01 11:12:00,
2013-06-01 03:17:00,44.0,42.5,30.10,North,0,0.0,-999.0,94,0.00,,,-99.99,,2013-06-01 11:17:00,
2013-06-01 03:22:00,43.8,42.3,30.10,North,0,0.0,-999.0,94,0.00,,,-99.99,,2013-06-01 11:22:00,
2013-06-01 03:27:00,43.7,42.2,30.10,North,0,0.0,-999.0,94,0.00,,,-99.99,,2013-06-01 11:27:00,
2013-06-01 03:32:00,43.7,42.2,30.10,North,0,0.0,-999.0,94,0.00,,,-99.99,,2013-06-01 11:32:00,
2013-06-01 03:37:00,43.7,42.3,30.10,North,0,0.0,-999.0,94,0.00,,,-99.99,,2013-06-01 11:37:00,
2013-06-01 03:42:00,43.7,42.2,30.10,North,0,0.0,-999.0,94,0.00,,,-99.99,,2013-06-01 11:42:00,
2013-06-01 03:47:00,43.8,42.3,30.10,North,0,0.0,-999.0,94,0.00,,,-99.99,,2013-06-01 11:47:00,
2013-06-01 03:52:00,43.7,42.2,30.10,North,0,0.0,-999.0,94,0.00,,,-99.99,,2013-06-01 11:52:00,
2013-06-01 03:57:00,43.7,42.3,30.10,North,0,0.0,-999.0,94,0.00,,,-99.99,,2013-06-01 11:57:00,
2013-06-01 04:02:00,43.7,42.4,30.08,North,0,0.0,-999.0,94,0.00,,,-99.99,,2013-06-01 12:02:00,
2013-06-01 04:07:00,44.0,42.6,30.08,North,0,0.0,-999.0,94,0.00,,,-99.99,,2013-06-01 12:07:00,
2013-06-01 04:12:00,43.8,42.4,30.08,North,0,0.0,-999.0,94,0.00,,,-99.99,,2013-06-01 12:12:00,
2013-06-01 04:17:00,43.7,42.3,30.08,North,0,0.0,-999.0,94,0.00,,,-99.99,,2013-06-01 12:17:00,
2013-06-01 04:22:00,43.7,42.3,30.08,North,0,0.0,-999.0,94,0.00,,,-99.99,,2013-06-01 12:22:00,
2013-06-01 04:28:00,43.7,42.4,30.08,North,0,0.0,-999.0,95,0.00,,,-99.99,,2013-06-01 12:28:00,
2013-06-01 04:33:00,43.7,42.4,30.08,North,0,0.0,-999.0,95,0.00,,,-99.99,,2013-06-01 12:33:00,
2013-06-01 04:38:00,43.7,42.4,30.08,North,0,0.0,-999.0,95,0.00,,,-99.99,,2013-06-01 12:38:00,
2013-06-01 04:43:00,43.8,42.5,30.08,North,0,0.0,-999.0,95,0.00,,,-99.99,,2013-06-01 12:43:00,
2013-06-01 04:48:00,43.8,42.5,30.08,North,0,0.0,-999.0,95,0.00,,,-99.99,,2013-06-01 12:48:00,
2013-06-01 04:53:00,43.7,42.4,30.08,North,0,0.0,-999.0,95,0.00,,,-99.99,,2013-06-01 12:53:00,
2013-06-01 04:58:00,43.8,42.6,30.08,North,0,0.0,-999.0,95,0.00,,,-99.99,,2013-06-01 12:58:00,
2013-06-01 05:03:00,44.0,42.8,30.09,North,0,0.0,-999.0,95,0.00,,,-99.99,,2013-06-01 13:03:00,
2013-06-01 05:08:00,44.2,42.9,30.09,North,0,0.0,-999.0,95,0.00,,,-99.99,,2013-06-01 13:08:00,
2013-06-01 05:13:00,44.2,42.9,30.09,North,0,0.0,-999.0,95,0.00,,,-99.99,,2013-06-01 13:13:00,
2013-06-01 05:18:00,44.2,42.8,30.09,North,0,0.0,-999.0,94,0.00,,,-99.99,,2013-06-01 13:18:00,
2013-06-01 05:23:00,44.2,42.9,30.09,North,0,0.0,-999.0,95,0.00,,,-99.99,,2013-06-01 13:23:00,
2013-06-01 05:28:00,44.4,43.1,30.09,North,0,0.0,-999.0,95,0.00,,,-99.99,,2013-06-01 13:28:00,
2013-06-01 05:33:00,45.0,43.8,30.09,North,0,0.0,-999.0,95,0.00,,,-99.99,,2013-06-01 13:33:00,
2013-06-01 05:38:00,45.0,43.7,30.09,North,0,0.0,-999.0,94,0.00,,,-99.99,,2013-06-01 13:38:00,
2013-06-01 05:43:00,44.9,43.4,30.09,North,0,0.0,-999.0,94,0.00,,,-99.99,,2013-06-01 13:43:00,
2013-06-01 05:48:00,45.0,43.5,30.09,North,0,0.0,-999.0,94,0.00,,,-99.99,,2013-06-01 13:48:00,
2013-06-01 05:53:00,45.2,43.6,30.09,North,0,0.0,-999.0,94,0.00,,,-99.99,,2013-06-01 13:53:00,
2013-06-01 06:00:00,45.2,43.5,30.08,North,0,0.0,-999.0,93,0.00,,,-99.99,,2013-06-01 14:00:00,
2013-06-01 06:05:00,45.1,43.3,30.08,North,0,0.0,-999.0,93,0.00,,,-99.99,,2013-06-01 14:05:00,
2013-06-01 06:10:00,45.4,43.6,30.08,North,0,0.0,-999.0,93,0.00,,,-99.99,,2013-06-01 14:10:00,
2013-06-01 06:15:00,45.1,43.0,30.08,North,0,0.0,-999.0,92,0.00,,,-99.99,,2013-06-01 14:15:00,
2013-06-01 06:20:00,45.4,43.3,30.08,North,0,0.0,-999.0,92,0.00,,,-99.99,,2013-06-01 14:20:00,
2013-06-01 06:25:00,45.8,43.8,30.08,North,0,0.0,-999.0,92,0.00,,,-99.99,,2013-06-01 14:25:00,
2013-06-01 06:30:00,46.0,43.8,30.08,North,0,0.0,-999.0,91,0.00,,,-99.99,,2013-06-01 14:30:00,
2013-06-01 06:35:00,45.8,43.5,30.08,North,0,0.0,-999.0,91,0.00,,,-99.99,,2013-06-01 14:35:00,
2013-06-01 06:40:00,45.8,43.5,30.08,North,0,0.0,-999.0,91,0.00,,,-99.99,,2013-06-01 14:40:00,
2013-06-01 06:45:00,45.8,43.6,30.08,North,0,0.0,-999.0,91,0.00,,,-99.99,,2013-06-01 14:45:00,
2013-06-01 06:50:00,45.9,43.5,30.08,North,0,0.0,-999.0,91,0.00,,,-99.99,,2013-06-01 14:50:00,
2013-06-01 06:55:00,45.9,44.0,30.08,North,0,0.0,-999.0,92,0.00,,,-99.99,,2013-06-01 14:55:00,
2013-06-01 07:00:00,46.1,44.0,30.08,North,0,0.0,-999.0,92,0.00,,,-99.99,,2013-06-01 15:00:00,
2013-06-01 07:05:00,46.1,44.0,30.08,North,0,0.0,-999.0,92,0.00,,,-99.99,,2013-06-01 15:05:00,
2013-06-01 07:10:00,45.8,43.8,30.08,North,0,0.0,-999.0,92,0.00,,,-99.99,,2013-06-01 15:10:00,
2013-06-01 07:15:00,46.2,44.3,30.08,North,0,0.0,-999.0,92,0.00,,,-99.99,,2013-06-01 15:15:00,
2013-06-01 07:20:00,46.2,44.1,30.08,North,0,0.0,-999.0,92,0.00,,,-99.99,,2013-06-01 15:20:00,
2013-06-01 07:25:00,46.3,44.2,30.08,North,0,0.0,-999.0,92,0.00,,,-99.99,,2013-06-01 15:25:00,
2013-06-01 07:30:00,46.7,44.4,30.08,North,0,0.0,-999.0,91,0.00,,,-99.99,,2013-06-01 15:30:00,
2013-06-01 07:35:00,46.8,44.3,30.08,North,0,0.0,-999.0,90,0.00,,,-99.99,,2013-06-01 15:35:00,
2013-06-01 07:40:00,46.9,44.2,30.08,North,0,0.0,-999.0,90,0.00,,,-99.99,,2013-06-01 15:40:00,
2013-06-01 07:45:00,46.7,44.2,30.08,North,0,0.0,-999.0,90,0.00,,,-99.99,,2013-06-01 15:45:00,
2013-06-01 07:50:00,46.5,44.0,30.08,North,0,0.0,-999.0,90,0.00,,,-99.99,,2013-06-01 15:50:00,
2013-06-01 07:55:00,46.7,44.3,30.08,North,0,0.0,-999.0,91,0.00,,,-99.99,,2013-06-01 15:55:00,
2013-06-01 08:00:00,47.1,44.4,30.08,North,0,0.0,-999.0,90,0.00,,,-99.99,,2013-06-01 16:00:00,
2013-06-01 08:05:00,46.9,44.0,30.08,North,0,0.0,-999.0,89,0.00,,,-99.99,,2013-06-01 16:05:00,
2013-06-01 08:10:00,47.2,44.3,30.08,North,0,0.0,-999.0,89,0.00,,,-99.99,,2013-06-01 16:10:00,
2013-06-01 08:15:00,47.2,44.0,30.08,North,0,0.0,-999.0,88,0.00,,,-99.99,,2013-06-01 16:15:00,
2013-06-01 08:20:00,47.5,44.2,30.08,North,0,0.0,-999.0,88,0.00,,,-99.99,,2013-06-01 16:20:00,
2013-06-01 08:25:00,47.3,44.0,30.08,North,0,0.0,-999.0,88,0.00,,,-99.99,,2013-06-01 16:25:00,
2013-06-01 08:30:00,46.7,43.7,30.08,North,0,0.0,-999.0,89,0.00,,,-99.99,,2013-06-01 16:30:00,
2013-06-01 08:35:00,46.7,44.0,30.08,North,0,0.0,-999.0,90,0.00,,,-99.99,,2013-06-01 16:35:00,
2013-06-01 08:40:00,47.3,44.5,30.08,North,0,0.0,-999.0,89,0.00,,,-99.99,,2013-06-01 16:40:00,
2013-06-01 08:45:00,47.4,44.0,30.08,North,0,0.0,-999.0,87,0.00,,,-99.99,,2013-06-01 16:45:00,
2013-06-01 08:50:00,47.9,44.5,30.08,North,0,0.0,-999.0,88,0.00,,,-99.99,,2013-06-01 16:50:00,
2013-06-01 08:55:00,48.3,44.4,30.08,North,0,0.0,-999.0,86,0.00,,,-99.99,,2013-06-01 16:55:00,
2013-06-01 09:01:00,48.1,44.2,30.08,North,0,0.0,-999.0,86,0.00,,,-99.99,,2013-06-01 17:01:00,
2013-06-01 09:06:00,48.4,44.5,30.08,North,0,0.0,-999.0,86,0.00,,,-99.99,,2013-06-01 17:06:00,
2013-06-01 09:11:00,49.2,44.8,30.08,North,0,0.0,-999.0,84,0.00,,,-99.99,,2013-06-01 17:11:00,
2013-06-01 09:16:00,50.7,45.3,30.08,North,0,0.0,-999.0,81,0.00,,,-99.99,,2013-06-01 17:16:00,
2013-06-01 09:21:00,51.5,44.6,30.08,North,0,0.0,-999.0,77,0.00,,,-99.99,,2013-06-01 17:21:00,
2013-06-01 09:26:00,51.0,44.5,30.08,North,0,0.0,-999.0,78,0.00,,,-99.99,,2013-06-01 17:26:00,
2013-06-01 09:31:00,51.0,44.6,30.08,North,0,0.0,-999.0,78,0.00,,,-99.99,,2013-06-01 17:31:00,
2013-06-01 09:36:00,50.2,44.3,30.08,North,0,0.0,-999.0,80,0.00,,,-99.99,,2013-06-01 17:36:00,
2013-06-01 09:41:00,50.3,44.6,30.08,North,0,0.0,-999.0,80,0.00,,,-99.99,,2013-06-01 17:41:00,
2013-06-01 09:46:00,50.3,44.6,30.08,North,0,0.0,-999.0,80,0.00,,,-99.99,,2013-06-01 17:46:00,
2013-06-01 09:51:00,51.2,44.6,30.08,North,0,0.0,-999.0,78,0.00,,,-99.99,,2013-06-01 17:51:00,
2013-06-01 09:56:00,51.1,44.7,30.08,North,0,0.0,-999.0,78,0.00,,,-99.99,,2013-06-01 17:56:00,
2013-06-01 10:01:00,50.8,44.4,30.09,North,0,0.0,-999.0,78,0.00,,,-99.99,,2013-06-01 18:01:00,
2013-06-01 10:06:00,51.3,45.1,30.09,North,0,0.0,-999.0,79,0.00,,,-99.99,,2013-06-01 18:06:00,
2013-06-01 10:11:00,51.5,44.8,30.09,North,0,0.0,-999.0,77,0.00,,,-99.99,,2013-06-01 18:11:00,
2013-06-01 10:16:00,51.5,44.3,30.09,North,0,0.0,-999.0,76,0.00,,,-99.99,,2013-06-01 18:16:00,
2013-06-01 10:21:00,51.4,44.4,30.09,North,0,0.0,-999.0,76,0.00,,,-99.99,,2013-06-01 18:21:00,
2013-06-01 10:26:00,51.0,44.4,30.09,North,0,0.0,-999.0,77,0.00,,,-99.99,,2013-06-01 18:26:00,
2013-06-01 10:31:00,51.6,44.6,30.09,North,0,0.0,-999.0,76,0.00,,,-99.99,,2013-06-01 18:31:00,
2013-06-01 10:36:00,51.4,44.6,30.09,North,0,0.0,-999.0,77,0.00,,,-99.99,,2013-06-01 18:36:00,
2013-06-01 10:41:00,51.7,44.5,30.09,North,0,0.0,-999.0,76,0.00,,,-99.99,,2013-06-01 18:41:00,
2013-06-01 10:46:00,52.4,44.5,30.09,North,0,0.0,-999.0,74,0.00,,,-99.99,,2013-06-01 18:46:00,
2013-06-01 10:51:00,52.7,44.5,30.09,North,0,0.0,-999.0,73,0.00,,,-99.99,,2013-06-01 18:51:00,
2013-06-01 10:56:00,53.1,44.8,30.09,North,0,0.0,-999.0,73,0.00,,,-99.99,,2013-06-01 18:56:00,
2013-06-01 11:01:00,52.1,44.3,30.08,North,0,0.0,-999.0,74,0.00,,,-99.99,,2013-06-01 19:01:00,
2013-06-01 11:06:00,52.0,44.7,30.08,North,0,0.0,-999.0,76,0.00,,,-99.99,,2013-06-01 19:06:00,
2013-06-01 11:11:00,52.6,44.9,30.08,North,0,0.0,-999.0,75,0.00,,,-99.99,,2013-06-01 19:11:00,
2013-06-01 11:16:00,52.6,44.6,30.08,North,0,0.0,-999.0,74,0.00,,,-99.99,,2013-06-01 19:16:00,
2013-06-01 11:21:00,53.0,44.9,30.08,North,0,0.0,-999.0,73,0.00,,,-99.99,,2013-06-01 19:21:00,
2013-06-01 11:26:00,54.2,45.5,30.08,North,0,0.0,-999.0,72,0.00,,,-99.99,,2013-06-01 19:26:00,
2013-06-01 11:31:00,55.0,45.5,30.08,North,0,0.0,-999.0,70,0.00,,,-99.99,,2013-06-01 19:31:00,
2013-06-01 11:36:00,54.8,44.5,30.08,North,0,0.0,-999.0,68,0.00,,,-99.99,,2013-06-01 19:36:00,
2013-06-01 11:41:00,54.2,44.7,30.08,North,0,0.0,-999.0,69,0.00,,,-99.99,,2013-06-01 19:41:00,
2013-06-01 11:46:00,54.5,44.4,30.08,North,0,0.0,-999.0,68,0.00,,,-99.99,,2013-06-01 19:46:00,
2013-06-01 11:51:00,54.1,44.8,30.08,North,0,0.0,-999.0,70,0.00,,,-99.99,,2013-06-01 19:51:00,
2013-06-01 11:56:00,54.6,45.0,30.08,North,0,0.0,-999.0,69,0.00,,,-99.99,,2013-06-01 19:56:00,
2013-06-01 12:01:00,55.2,45.0,30.08,North,0,0.0,-999.0,68,0.00,,,-99.99,,2013-06-01 20:01:00,
2013-06-01 12:06:00,55.3,44.8,30.08,North,0,0.0,-999.0,67,0.00,,,-99.99,,2013-06-01 20:06:00,
2013-06-01 12:11:00,54.8,44.8,30.08,North,0,0.0,-999.0,68,0.00,,,-99.99,,2013-06-01 20:11:00,
2013-06-01 12:16:00,55.0,45.2,30.08,North,0,0.0,-999.0,69,0.00,,,-99.99,,2013-06-01 20:16:00,
2013-06-01 12:21:00,55.1,44.9,30.08,North,0,0.0,-999.0,68,0.00,,,-99.99,,2013-06-01 20:21:00,
2013-06-01 12:26:00,54.9,44.5,30.08,North,0,0.0,-999.0,67,0.00,,,-99.99,,2013-06-01 20:26:00,
2013-06-01 12:31:00,54.8,44.8,30.08,North,0,0.0,-999.0,68,0.00,,,-99.99,,2013-06-01 20:31:00,
2013-06-01 12:36:00,54.5,44.7,30.08,North,0,0.0,-999.0,69,0.00,,,-99.99,,2013-06-01 20:36:00,
2013-06-01 12:41:00,54.5,44.0,30.08,North,0,0.0,-999.0,67,0.00,,,-99.99,,2013-06-01 20:41:00,
2013-06-01 12:46:00,54.7,44.7,30.08,North,0,0.0,-999.0,68,0.00,,,-99.99,,2013-06-01 20:46:00,
2013-06-01 12:51:00,56.1,44.7,30.08,North,0,0.0,-999.0,65,0.00,,,-99.99,,2013-06-01 20:51:00,
2013-06-01 12:56:00,55.5,44.6,30.08,North,0,0.0,-999.0,66,0.00,,,-99.99,,2013-06-01 20:56:00,
2013-06-01 13:01:00,54.4,44.3,30.09,North,0,0.0,-999.0,68,0.00,,,-99.99,,2013-06-01 21:01:00,
2013-06-01 13:06:00,54.5,44.7,30.09,North,0,0.0,-999.0,69,0.00,,,-99.99,,2013-06-01 21:06:00,
2013-06-01 13:11:00,55.9,44.7,30.09,North,0,0.0,-999.0,65,0.00,,,-99.99,,2013-06-01 21:11:00,
2013-06-01 13:16:00,54.8,44.4,30.09,North,0,0.0,-999.0,67,0.00,,,-99.99,,2013-06-01 21:16:00,
2013-06-01 13:21:00,54.3,44.9,30.09,North,0,0.0,-999.0,70,0.00,,,-99.99,,2013-06-01 21:21:00,
2013-06-01 13:26:00,56.5,45.1,30.09,North,0,0.0,-999.0,65,0.00,,,-99.99,,2013-06-01 21:26:00,
2013-06-01 13:31:00,56.2,44.2,30.09,North,0,0.0,-999.0,64,0.00,,,-99.99,,2013-06-01 21:31:00,
2013-06-01 13:36:00,56.5,44.4,30.09,North,0,0.0,-999.0,63,0.00,,,-99.99,,2013-06-01 21:36:00,
2013-06-01 13:41:00,55.8,44.3,30.09,North,0,0.0,-999.0,65,0.00,,,-99.99,,2013-06-01 21:41:00,
2013-06-01 13:46:00,55.0,44.3,30.09,North,0,0.0,-999.0,67,0.00,,,-99.99,,2013-06-01 21:46:00,
2013-06-01 13:51:00,55.1,44.4,30.09,North,0,0.0,-999.0,67,0.00,,,-99.99,,2013-06-01 21:51:00,
2013-06-01 13:56:00,54.5,44.0,30.09,North,0,0.0,-999.0,67,0.00,,,-99.99,,2013-06-01 21:56:00,
2013-06-01 14:01:00,53.7,44.2,30.10,North,0,0.0,-999.0,70,0.00,,,-99.99,,2013-06-01 22:01:00,
2013-06-01 14:06:00,53.2,44.0,30.10,North,0,0.0,-999.0,70,0.00,,,-99.99,,2013-06-01 22:06:00,
2013-06-01 14:11:00,53.0,44.2,30.10,North,0,0.0,-999.0,71,0.00,,,-99.99,,2013-06-01 22:11:00,
2013-06-01 14:16:00,52.6,44.2,30.10,North,0,0.0,-999.0,72,0.00,,,-99.99,,2013-06-01 22:16:00,
2013-06-01 14:21:00,53.0,43.9,30.10,North,0,0.0,-999.0,71,0.00,,,-99.99,,2013-06-01 22:21:00,
2013-06-01 14:26:00,52.4,44.4,30.10,North,0,0.0,-999.0,74,0.00,,,-99.99,,2013-06-01 22:26:00,
2013-06-01 14:31:00,52.9,44.4,30.10,North,0,0.0,-999.0,72,0.00,,,-99.99,,2013-06-01 22:31:00,
2013-06-01 14:36:00,53.0,44.4,30.10,North,0,0.0,-999.0,72,0.00,,,-99.99,,2013-06-01 22:36:00,
2013-06-01 14:41:00,52.8,44.5,30.10,North,0,0.0,-999.0,73,0.00,,,-99.99,,2013-06-01 22:41:00,
2013-06-01 14:46:00,52.9,44.2,30.10,North,0,0.0,-999.0,72,0.00,,,-99.99,,2013-06-01 22:46:00,
2013-06-01 14:51:00,52.4,44.5,30.10,North,0,0.0,-999.0,74,0.00,,,-99.99,,2013-06-01 22:51:00,
2013-06-01 14:56:00,52.4,44.8,30.10,North,0,0.0,-999.0,75,0.00,,,-99.99,,2013-06-01 22:56:00,
2013-06-01 15:01:00,52.6,44.8,30.10,North,0,0.0,-999.0,74,0.00,,,-99.99,,2013-06-01 23:01:00,
2013-06-01 15:06:00,52.4,44.4,30.10,North,0,0.0,-999.0,73,0.00,,,-99.99,,2013-06-01 23:06:00,
2013-06-01 15:11:00,52.2,44.2,30.10,North,0,0.0,-999.0,73,0.00,,,-99.99,,2013-06-01 23:11:00,
2013-06-01 15:16:00,52.2,44.2,30.10,North,0,0.0,-999.0,73,0.00,,,-99.99,,2013-06-01 23:16:00,
2013-06-01 15:21:00,52.1,44.1,30.10,North,0,0.0,-999.0,73,0.00,,,-99.99,,2013-06-01 23:21:00,
2013-06-01 15:26:00,52.4,44.4,30.10,North,0,0.0,-999.0,74,0.00,,,-99.99,,2013-06-01 23:26:00,
2013-06-01 15:31:00,52.6,44.5,30.10,North,0,0.0,-999.0,73,0.00,,,-99.99,,2013-06-01 23:31:00,
2013-06-01 15:36:00,53.2,44.3,30.10,North,0,0.0,-999.0,71,0.00,,,-99.99,,2013-06-01 23:36:00,
2013-06-01 15:41:00,52.7,44.2,30.10,North,0,0.0,-999.0,72,0.00,,,-99.99,,2013-06-01 23:41:00,
2013-06-01 15:46:00,51.8,43.8,30.10,North,0,0.0,-999.0,74,0.00,,,-99.99,,2013-06-01 23:46:00,
2013-06-01 15:51:00,51.0,43.9,30.10,North,0,0.0,-999.0,76,0.00,,,-99.99,,2013-06-01 23:51:00,
2013-06-01 15:56:00,51.2,44.1,30.10,North,0,0.0,-999.0,76,0.00,,,-99.99,,2013-06-01 23:56:00,
2013-06-01 16:01:00,50.9,43.9,30.10,North,0,0.0,-999.0,76,0.00,,,-99.99,,2013-06-02 00:01:00,
2013-06-01 16:06:00,50.3,43.4,30.10,North,0,0.0,-999.0,77,0.00,,,-99.99,,2013-06-02 00:06:00,
2013-06-01 16:11:00,50.8,44.0,30.10,North,0,0.0,-999.0,77,0.00,,,-99.99,,2013-06-02 00:11:00,
2013-06-01 16:16:00,51.0,44.1,30.10,North,0,0.0,-999.0,77,0.00,,,-99.99,,2013-06-02 00:16:00,
2013-06-01 16:21:00,51.5,44.3,30.10,North,0,0.0,-999.0,76,0.00,,,-99.99,,2013-06-02 00:21:00,
2013-06-01 16:26:00,52.0,44.7,30.10,North,0,0.0,-999.0,75,0.00,,,-99.99,,2013-06-02 00:26:00,
2013-06-01 16:31:00,51.9,44.4,30.10,North,0,0.0,-999.0,75,0.00,,,-99.99,,2013-06-02 00:31:00,
2013-06-01 16:36:00,51.9,44.4,30.10,North,0,0.0,-999.0,75,0.00,,,-99.99,,2013-06-02 00:36:00,
2013-06-01 16:41:00,52.4,44.4,30.10,North,0,0.0,-999.0,74,0.00,,,-99.99,,2013-06-02 00:41:00,
2013-06-01 16:46:00,52.4,44.5,30.10,North,0,0.0,-999.0,74,0.00,,,-99.99,,2013-06-02 00:46:00,
2013-06-01 16:51:00,53.1,44.6,30.10,North,0,0.0,-999.0,72,0.00,,,-99.99,,2013-06-02 00:51:00,
2013-06-01 16:56:00,53.4,44.6,30.10,North,0,0.0,-999.0,71,0.00,,,-99.99,,2013-06-02 00:56:00,
2013-06-01 17:01:00,52.9,44.0,30.10,North,0,0.0,-999.0,71,0.00,,,-99.99,,2013-06-02 01:01:00,
2013-06-01 17:08:00,52.5,43.4,30.10,North,0,0.0,-999.0,70,0.00,,,-99.99,,2013-06-02 01:08:00,
2013-06-01 17:13:00,52.5,43.4,30.10,North,0,0.0,-999.0,71,0.00,,,-99.99,,2013-06-02 01:13:00,
2013-06-01 17:18:00,52.1,43.3,30.10,North,0,0.0,-999.0,71,0.00,,,-99.99,,2013-06-02 01:18:00,
2013-06-01 17:23:00,52.5,43.3,30.10,North,0,0.0,-999.0,70,0.00,,,-99.99,,2013-06-02 01:23:00,
2013-06-01 17:28:00,52.3,43.0,30.10,North,0,0.0,-999.0,70,0.00,,,-99.99,,2013-06-02 01:28:00,
2013-06-01 17:33:00,51.8,41.9,30.10,North,0,0.0,-999.0,68,0.00,,,-99.99,,2013-06-02 01:33:00,
2013-06-01 17:38:00,51.3,42.1,30.10,North,0,0.0,-999.0,70,0.00,,,-99.99,,2013-06-02 01:38:00,
2013-06-01 17:43:00,51.0,41.9,30.10,North,0,0.0,-999.0,71,0.00,,,-99.99,,2013-06-02 01:43:00,
2013-06-01 17:48:00,51.1,41.6,30.10,North,0,0.0,-999.0,69,0.00,,,-99.99,,2013-06-02 01:48:00,
2013-06-01 17:53:00,50.8,42.0,30.10,North,0,0.0,-999.0,71,0.00,,,-99.99,,2013-06-02 01:53:00,
2013-06-01 17:58:00,51.3,42.0,30.10,North,0,0.0,-999.0,70,0.00,,,-99.99,,2013-06-02 01:58:00,
2013-06-01 18:03:00,50.9,41.7,30.09,North,0,0.0,-999.0,70,0.00,,,-99.99,,2013-06-02 02:03:00,
2013-06-01 18:08:00,50.7,41.8,30.09,North,0,0.0,-999.0,71,0.00,,,-99.99,,2013-06-02 02:08:00,
2013-06-01 18:13:00,50.8,41.6,30.09,North,0,0.0,-999.0,70,0.00,,,-99.99,,2013-06-02 02:13:00,
2013-06-01 18:18:00,50.5,41.3,30.09,North,0,0.0,-999.0,70,0.00,,,-99.99,,2013-06-02 02:18:00,
2013-06-01 18:23:00,50.3,41.3,30.09,North,0,0.0,-999.0,71,0.00,,,-99.99,,2013-06-02 02:23:00,
2013-06-01 18:28:00,50.1,41.3,30.09,North,0,0.0,-999.0,71,0.00,,,-99.99,,2013-06-02 02:28:00,
2013-06-01 18:33:00,50.1,41.4,30.09,North,0,0.0,-999.0,71,0.00,,,-99.99,,2013-06-02 02:33:00,
2013-06-01 18:38:00,50.0,41.5,30.09,North,0,0.0,-999.0,72,0.00,,,-99.99,,2013-06-02 02:38:00,
2013-06-01 18:43:00,49.6,41.3,30.09,North,0,0.0,-999.0,72,0.00,,,-99.99,,2013-06-02 02:43:00,
2013-06-01 18:48:00,49.8,41.1,30.09,North,0,0.0,-999.0,71,0.00,,,-99.99,,2013-06-02 02:48:00,
2013-06-01 18:53:00,49.4,41.4,30.09,North,0,0.0,-999.0,73,0.00,,,-99.99,,2013-06-02 02:53:00,
2013-06-01 18:58:00,49.7,41.2,30.09,North,0,0.0,-999.0,72,0.00,,,-99.99,,2013-06-02 02:58:00,
2013-06-01 19:03:00,49.4,41.0,30.09,North,0,0.0,-999.0,72,0.00,,,-99.99,,2013-06-02 03:03:00,
2013-06-01 19:08:00,49.6,41.3,30.09,North,0,0.0,-999.0,72,0.00,,,-99.99,,2013-06-02 03:08:00,
2013-06-01 19:13:00,48.9,41.1,30.09,North,0,0.0,-999.0,74,0.00,,,-99.99,,2013-06-02 03:13:00,
2013-06-01 19:18:00,48.6,40.8,30.09,North,0,0.0,-999.0,74,0.00,,,-99.99,,2013-06-02 03:18:00,
2013-06-01 19:23:00,48.8,41.0,30.09,North,0,0.0,-999.0,74,0.00,,,-99.99,,2013-06-02 03:23:00,
2013-06-01 19:28:00,48.9,40.8,30.09,North,0,0.0,-999.0,73,0.00,,,-99.99,,2013-06-02 03:28:00,
2013-06-01 19:33:00,48.8,40.7,30.09,North,0,0.0,-999.0,73,0.00,,,-99.99,,2013-06-02 03:33:00,
2013-06-01 19:38:00,48.6,40.5,30.09,North,0,0.0,-999.0,73,0.00,,,-99.99,,2013-06-02 03:38:00,
2013-06-01 19:43:00,48.4,40.6,30.09,North,0,0.0,-999.0,74,0.00,,,-99.99,,2013-06-02 03:43:00,
2013-06-01 19:48:00,48.1,40.6,30.09,North,0,0.0,-999.0,74,0.00,,,-99.99,,2013-06-02 03:48:00,
2013-06-01 19:53:00,48.2,40.8,30.09,North,0,0.0,-999.0,75,0.00,,,-99.99,,2013-06-02 03:53:00,
2013-06-01 19:58:00,48.0,40.8,30.09,North,0,0.0,-999.0,75,0.00,,,-99.99,,2013-06-02 03:58:00,
2013-06-01 20:01:00,47.9,40.7,30.10,North,0,0.0,-999.0,75,0.00,,,-99.99,,2013-06-02 04:01:00,
2013-06-01 20:02:00,47.8,40.8,30.10,North,0,0.0,-999.0,76,0.00,,,-99.99,,2013-06-02 04:02:00,
2013-06-01 20:05:00,47.7,40.8,30.10,North,0,0.0,-999.0,76,0.00,,,-99.99,,2013-06-02 04:05:00,
2013-06-01 20:08:00,47.7,40.8,30.10,North,0,0.0,-999.0,77,0.00,,,-99.99,,2013-06-02 04:08:00,
2013-06-01 20:12:00,47.6,40.9,30.10,North,0,0.0,-999.0,77,0.00,,,-99.99,,2013-06-02 04:12:00,
2013-06-01 20:17:00,47.3,40.5,30.10,North,0,0.0,-999.0,77,0.00,,,-99.99,,2013-06-02 04:17:00,
2013-06-01 20:22:00,47.3,40.5,30.10,North,0,0.0,-999.0,77,0.00,,,-99.99,,2013-06-02 04:22:00,
2013-06-01 20:27:00,47.1,40.4,30.10,North,0,0.0,-999.0,77,0.00,,,-99.99,,2013-06-02 04:27:00,
2013-06-01 20:32:00,47.0,40.0,30.10,North,0,0.0,-999.0,76,0.00,,,-99.99,,2013-06-02 04:32:00,
2013-06-01 20:37:00,46.9,40.0,30.10,North,0,0.0,-999.0,76,0.00,,,-99.99,,2013-06-02 04:37:00,
2013-06-01 20:42:00,47.0,40.0,30.10,North,0,0.0,-999.0,76,0.00,,,-99.99,,2013-06-02 04:42:00,
2013-06-01 20:47:00,46.8,39.8,30.10,North,0,0.0,-999.0,76,0.00,,,-99.99,,2013-06-02 04:47:00,
2013-06-01 20:52:00,47.1,40.2,30.10,North,0,0.0,-999.0,76,0.00,,,-99.99,,2013-06-02 04:52:00,
2013-06-01 20:57:00,46.7,40.0,30.10,North,0,0.0,-999.0,77,0.00,,,-99.99,,2013-06-02 04:57:00,
2013-06-01 21:02:00,46.5,40.2,30.10,North,0,0.0,-999.0,78,0.00,,,-99.99,,2013-06-02 05:02:00,
2013-06-01 21:07:00,46.3,39.9,30.10,North,0,0.0,-999.0,78,0.00,,,-99.99,,2013-06-02 05:07:00,
2013-06-01 21:12:00,46.1,39.6,30.10,North,0,0.0,-999.0,77,0.00,,,-99.99,,2013-06-02 05:12:00,
2013-06-01 21:17:00,46.0,39.5,30.10,North,0,0.0,-999.0,77,0.00,,,-99.99,,2013-06-02 05:17:00,
2013-06-01 21:22:00,46.1,39.8,30.10,North,0,0.0,-999.0,78,0.00,,,-99.99,,2013-06-02 05:22:00,
2013-06-01 21:27:00,46.1,39.7,30.10,North,0,0.0,-999.0,78,0.00,,,-99.99,,2013-06-02 05:27:00,
2013-06-01 21:32:00,46.0,39.6,30.10,North,0,0.0,-999.0,78,0.00,,,-99.99,,2013-06-02 05:32:00,
2013-06-01 21:37:00,46.1,39.8,30.10,North,0,0.0,-999.0,78,0.00,,,-99.99,,2013-06-02 05:37:00,
2013-06-01 21:42:00,46.3,39.7,30.10,North,0,0.0,-999.0,77,0.00,,,-99.99,,2013-06-02 05:42:00,
2013-06-01 21:47:00,46.0,39.5,30.10,North,0,0.0,-999.0,77,0.00,,,-99.99,,2013-06-02 05:47:00,
2013-06-01 21:52:00,46.2,39.6,30.10,North,0,0.0,-999.0,77,0.00,,,-99.99,,2013-06-02 05:52:00,
2013-06-01 21:57:00,46.2,39.3,30.10,North,0,0.0,-999.0,76,0.00,,,-99.99,,2013-06-02 05:57:00,
2013-06-01 22:02:00,46.1,38.8,30.11,North,0,0.0,-999.0,75,0.00,,,-99.99,,2013-06-02 06:02:00,
2013-06-01 22:07:00,45.9,38.7,30.11,North,0,0.0,-999.0,75,0.00,,,-99.99,,2013-06-02 06:07:00,
2013-06-01 22:12:00,46.2,39.1,30.11,North,0,0.0,-999.0,76,0.00,,,-99.99,,2013-06-02 06:12:00,
2013-06-01 22:17:00,46.2,39.1,30.11,North,0,0.0,-999.0,75,0.00,,,-99.99,,2013-06-02 06:17:00,
2013-06-01 22:22:00,46.1,39.1,30.11,North,0,0.0,-999.0,76,0.00,,,-99.99,,2013-06-02 06:22:00,
2013-06-01 22:27:00,45.9,39.0,30.11,North,0,0.0,-999.0,76,0.00,,,-99.99,,2013-06-02 06:27:00,
2013-06-01 22:32:00,45.9,38.7,30.11,North,0,0.0,-999.0,75,0.00,,,-99.99,,2013-06-02 06:32:00,
2013-06-01 22:37:00,45.9,38.7,30.11,North,0,0.0,-999.0,75,0.00,,,-99.99,,2013-06-02 06:37:00,
2013-06-01 22:42:00,45.8,38.7,30.11,North,0,0.0,-999.0,76,0.00,,,-99.99,,2013-06-02 06:42:00,
2013-06-01 22:47:00,45.8,38.7,30.11,North,0,0.0,-999.0,76,0.00,,,-99.99,,2013-06-02 06:47:00,
2013-06-01 22:52:00,45.5,38.5,30.11,North,0,0.0,-999.0,76,0.00,,,-99.99,,2013-06-02 06:52:00,
2013-06-01 22:57:00,45.4,38.5,30.11,North,0,0.0,-999.0,76,0.00,,,-99.99,,2013-06-02 06:57:00,
2013-06-01 23:02:00,45.7,38.0,30.12,North,0,0.0,-999.0,74,0.00,,,-99.99,,2013-06-02 07:02:00,
2013-06-01 23:07:00,45.5,38.1,30.12,North,0,0.0,-999.0,75,0.00,,,-99.99,,2013-06-02 07:07:00,
2013-06-01 23:12:00,45.4,38.5,30.12,North,0,0.0,-999.0,76,0.00,,,-99.99,,2013-06-02 07:12:00,
2013-06-01 23:17:00,45.6,38.5,30.12,North,0,0.0,-999.0,76,0.00,,,-99.99,,2013-06-02 07:17:00,
2013-06-01 23:22:00,45.2,38.4,30.12,North,0,0.0,-999.0,76,0.00,,,-99.99,,2013-06-02 07:22:00,
2013-06-01 23:27:00,45.1,38.3,30.12,North,0,0.0,-999.0,76,0.00,,,-99.99,,2013-06-02 07:27:00,
2013-06-01 23:32:00,45.0,38.3,30.12,North,0,0.0,-999.0,77,0.00,,,-99.99,,2013-06-02 07:32:00,
2013-06-01 23:37:00,45.0,38.2,30.12,North,0,0.0,-999.0,76,0.00,,,-99.99,,2013-06-02 07:37:00,
2013-06-01 23:42:00,44.8,37.5,30.12,North,0,0.0,-999.0,75,0.00,,,-99.99,,2013-06-02 07:42:00,
2013-06-01 23:47:00,45.0,37.5,30.12,North,0,0.0,-999.0,74,0.00,,,-99.99,,2013-06-02 07:47:00,
2013-06-01 23:52:00,44.8,37.1,30.12,North,0,0.0,-999.0,74,0.00,,,-99.99,,2013-06-02 07:52:00,
2013-06-01 23:57:00,44.8,37.0,30.12,North,0,0.0,-999.0,73,0.00,,,-99.99,,2013-06-02 07:57:00,